Time;durP1;ratioP1;P1;durP2;ratioP2;P2;SDS_P1;SDS_P2;PMS_P1;PMS_P2;Temp;Humidity;BMP_temperature;BMP_pressure;BME280_temperature;BME280_humidity;BME280_pressure;Samples;Min_cycle;Max_cycle;Signal;HPM_P1;HPM_P2
2022/04/18 00:02:21;;;;;;;19.10;14.73;;;7.30;82.70;;;;;;4935739;29;20151;-73
2022/04/18 00:04:47;;;;;;;18.48;13.45;;;7.20;84.80;;;;;;4935663;29;20106;-73
2022/04/18 00:07:13;;;;;;;18.92;14.40;;;7.00;85.00;;;;;;4934657;29;20122;-73
2022/04/18 00:09:39;;;;;;;19.65;14.85;;;6.90;85.30;;;;;;4918351;29;20122;-73
2022/04/18 00:12:05;;;;;;;21.38;15.52;;;6.80;86.40;;;;;;4934422;29;20051;-73
2022/04/18 00:14:31;;;;;;;23.17;15.07;;;6.80;87.90;;;;;;4934098;29;20043;-73
2022/04/18 00:16:57;;;;;;;20.38;15.15;;;6.70;88.30;;;;;;4934494;29;20055;-73
2022/04/18 00:19:23;;;;;;;20.73;15.52;;;6.70;88.00;;;;;;4933953;29;20127;-73
2022/04/18 00:21:49;;;;;;;19.05;15.85;;;6.70;88.10;;;;;;4918711;29;20040;-73
2022/04/18 00:24:17;;;;;;;21.85;15.63;;;6.60;88.00;;;;;;4934209;29;20403;-73
2022/04/18 00:26:44;;;;;;;19.90;15.63;;;6.60;88.40;;;;;;4934446;29;20467;-73
2022/04/18 00:29:10;;;;;;;22.83;16.13;;;6.60;88.40;;;;;;4917078;29;20487;-73
2022/04/18 00:31:35;;;;;;;21.17;16.13;;;6.50;89.00;;;;;;4917719;29;20048;-73
2022/04/18 00:34:01;;;;;;;18.42;15.13;;;6.40;89.20;;;;;;4933950;29;20058;-73
2022/04/18 00:36:27;;;;;;;23.13;15.88;;;6.30;90.30;;;;;;4933733;29;20043;-73
2022/04/18 00:38:52;;;;;;;21.70;15.82;;;6.30;90.60;;;;;;4934065;29;20088;-73
2022/04/18 00:41:18;;;;;;;24.00;16.77;;;6.20;90.70;;;;;;4933613;29;20525;-73
2022/04/18 00:43:48;;;;;;;21.80;16.13;;;6.10;91.00;;;;;;4933650;29;20105;-73
2022/04/18 00:46:15;;;;;;;25.15;17.08;;;6.00;91.20;;;;;;4933954;29;20406;-73
2022/04/18 00:48:41;;;;;;;22.75;16.00;;;6.00;91.30;;;;;;4917745;29;20047;-73
2022/04/18 00:51:13;;;;;;;23.17;16.88;;;5.90;91.50;;;;;;4917880;29;20174;-74
2022/04/18 00:53:41;;;;;;;23.40;17.30;;;5.90;91.70;;;;;;4917615;29;20114;-73
2022/04/18 00:56:08;;;;;;;23.98;17.02;;;5.90;92.00;;;;;;4933276;29;20298;-74
2022/04/18 00:58:35;;;;;;;23.20;16.98;;;5.70;92.30;;;;;;4934915;29;20040;-73
2022/04/18 01:01:01;;;;;;;23.42;18.02;;;5.70;92.70;;;;;;4933456;29;20055;-74
2022/04/18 01:03:30;;;;;;;18.88;16.48;;;5.70;92.80;;;;;;4917778;29;20075;-73
2022/04/18 01:06:02;;;;;;;22.38;16.38;;;5.50;92.90;;;;;;4917450;29;20036;-73
2022/04/18 01:08:29;;;;;;;22.93;16.97;;;5.50;93.10;;;;;;4915529;29;20337;-73
2022/04/18 01:10:55;;;;;;;21.40;17.30;;;5.50;93.20;;;;;;4930422;29;20778;-73
2022/04/18 01:13:21;;;;;;;24.50;17.65;;;5.50;93.30;;;;;;4932521;29;20039;-73
2022/04/18 01:15:52;;;;;;;23.48;17.60;;;5.40;93.20;;;;;;4933417;29;20372;-73
2022/04/18 01:18:18;;;;;;;23.80;16.98;;;5.40;93.30;;;;;;4917365;29;20134;-73
2022/04/18 01:20:44;;;;;;;23.77;17.50;;;5.40;93.50;;;;;;4917214;29;20126;-73
2022/04/18 01:23:10;;;;;;;23.85;17.38;;;5.40;93.60;;;;;;4916947;29;20058;-73
2022/04/18 01:31:04;;;;;;;20.83;16.95;;;5.40;93.60;;;;;;4932837;29;20110;-73
2022/04/18 01:33:29;;;;;;;20.33;16.90;;;5.40;93.60;;;;;;4917085;29;20439;-73
2022/04/18 01:35:56;;;;;;;25.13;16.77;;;5.40;93.70;;;;;;4917301;29;20047;-73
2022/04/18 01:38:22;;;;;;;23.95;16.63;;;5.40;93.70;;;;;;4932568;29;20083;-73
2022/04/18 01:40:47;;;;;;;20.10;16.30;;;5.40;93.90;;;;;;4933039;29;20521;-73
2022/04/18 01:43:13;;;;;;;22.25;16.38;;;5.20;93.80;;;;;;4933193;29;20455;-73
2022/04/18 01:45:38;;;;;;;20.92;16.35;;;5.10;93.90;;;;;;4932901;29;20059;-73
2022/04/18 01:48:04;;;;;;;22.38;17.35;;;5.10;93.90;;;;;;4932408;29;20051;-74
2022/04/18 01:50:30;;;;;;;21.17;16.02;;;5.00;94.20;;;;;;4934067;29;20063;-74
2022/04/18 01:52:55;;;;;;;22.00;16.75;;;4.90;94.50;;;;;;4932904;29;20057;-73
2022/04/18 01:55:21;;;;;;;21.33;17.55;;;4.90;94.80;;;;;;4933164;29;20483;-73
2022/04/18 01:57:47;;;;;;;20.75;16.73;;;4.90;94.90;;;;;;4932335;29;20044;-73
2022/04/18 02:00:12;;;;;;;21.50;16.80;;;4.80;95.50;;;;;;4932807;29;20074;-74
2022/04/18 02:02:38;;;;;;;22.20;17.55;;;4.70;96.20;;;;;;4916984;29;20090;-73
2022/04/18 02:05:07;;;;;;;22.27;16.92;;;4.70;96.30;;;;;;4916879;29;20071;-73
2022/04/18 02:07:33;;;;;;;20.02;16.60;;;4.50;96.30;;;;;;4916660;29;20071;-73
2022/04/18 02:10:01;;;;;;;22.00;16.58;;;4.50;96.50;;;;;;4932628;29;20138;-73
2022/04/18 02:12:26;;;;;;;22.25;16.80;;;4.40;96.60;;;;;;4933059;29;20418;-74
2022/04/18 02:14:52;;;;;;;23.23;17.33;;;4.40;96.50;;;;;;4920610;29;20048;-73
2022/04/18 02:17:17;;;;;;;21.95;16.80;;;4.40;96.90;;;;;;4920330;29;20043;-73
2022/04/18 02:19:44;;;;;;;22.25;16.75;;;4.30;97.00;;;;;;4920678;29;20046;-73
2022/04/18 02:22:10;;;;;;;20.77;17.10;;;4.30;97.20;;;;;;4920418;29;20490;-73
2022/04/18 02:24:36;;;;;;;22.83;17.85;;;4.30;97.30;;;;;;4936347;29;20095;-73
2022/04/18 02:27:01;;;;;;;22.40;17.50;;;4.30;97.50;;;;;;4920238;29;20043;-73
2022/04/18 02:29:27;;;;;;;24.27;18.25;;;4.30;97.50;;;;;;4936116;29;20046;-73
2022/04/18 02:34:37;;;;;;;21.13;17.10;;;4.20;97.70;;;;;;4936133;29;20071;-74
2022/04/18 02:37:03;;;;;;;20.15;16.75;;;4.20;97.90;;;;;;4919954;29;20079;-73
2022/04/18 02:39:28;;;;;;;21.80;17.83;;;4.20;97.90;;;;;;4936175;29;20054;-73
2022/04/18 02:41:54;;;;;;;21.27;17.58;;;4.20;98.00;;;;;;4920712;29;20032;-73
2022/04/18 02:44:19;;;;;;;25.65;18.05;;;4.20;98.10;;;;;;4935230;29;20040;-73
2022/04/18 02:46:45;;;;;;;22.85;18.00;;;4.20;98.50;;;;;;4936054;29;20048;-73
2022/04/18 02:49:10;;;;;;;24.00;18.27;;;4.20;98.50;;;;;;4920225;29;20044;-73
2022/04/18 02:51:36;;;;;;;23.25;18.30;;;4.30;98.50;;;;;;4920226;29;20048;-73
2022/04/18 02:54:01;;;;;;;21.52;17.50;;;4.20;98.60;;;;;;4920076;29;20051;-73
2022/04/18 02:56:27;;;;;;;25.75;17.88;;;4.20;98.60;;;;;;4919617;29;20039;-73
2022/04/18 02:58:53;;;;;;;22.08;17.23;;;4.20;99.00;;;;;;4919924;29;20118;-73
2022/04/18 03:01:18;;;;;;;23.50;18.10;;;4.20;98.80;;;;;;4920077;29;20490;-73
2022/04/18 03:03:44;;;;;;;20.88;17.75;;;4.10;98.90;;;;;;4920260;29;20126;-74
2022/04/18 03:06:10;;;;;;;21.58;17.98;;;4.10;99.10;;;;;;4919764;29;20043;-73
2022/04/18 03:08:36;;;;;;;24.23;17.67;;;4.00;99.30;;;;;;4919429;29;20119;-73
2022/04/18 03:11:05;;;;;;;22.80;17.90;;;3.90;99.60;;;;;;4935584;29;20484;-73
2022/04/18 03:13:36;;;;;;;22.63;18.05;;;3.90;99.70;;;;;;4919577;29;20422;-73
2022/04/18 03:16:04;;;;;;;21.85;17.77;;;3.90;99.70;;;;;;4919349;29;20040;-73
2022/04/18 03:18:29;;;;;;;21.73;17.65;;;3.80;99.90;;;;;;4919666;29;20386;-73
2022/04/18 03:20:55;;;;;;;26.05;18.38;;;3.80;99.90;;;;;;4919619;29;20035;-73
2022/04/18 03:23:21;;;;;;;23.45;18.75;;;3.80;99.90;;;;;;4935141;29;20547;-74
2022/04/18 03:25:46;;;;;;;23.08;18.00;;;3.70;99.90;;;;;;4934063;29;20055;-73
2022/04/18 03:28:12;;;;;;;24.40;19.67;;;3.80;99.90;;;;;;4935264;29;20123;-73
2022/04/18 03:30:39;;;;;;;23.95;18.45;;;3.70;99.90;;;;;;4919637;29;20051;-73
2022/04/18 03:33:05;;;;;;;29.00;19.67;;;3.60;99.90;;;;;;4919693;29;20122;-73
2022/04/18 03:35:31;;;;;;;24.25;19.08;;;3.60;99.90;;;;;;4934829;29;20139;-73
2022/04/18 03:40:41;;;;;;;22.08;18.60;;;3.50;99.90;;;;;;4917925;29;20096;-73
2022/04/18 03:43:07;;;;;;;23.10;19.23;;;3.50;99.90;;;;;;4931840;29;20048;-73
2022/04/18 03:45:33;;;;;;;26.85;19.10;;;3.50;99.90;;;;;;4917732;29;20483;-73
2022/04/18 03:47:58;;;;;;;23.77;18.52;;;3.50;99.90;;;;;;4918855;29;20094;-73
2022/04/18 03:50:24;;;;;;;28.67;19.33;;;3.50;99.90;;;;;;4918581;29;20039;-73
2022/04/18 03:52:49;;;;;;;25.88;18.63;;;3.50;99.90;;;;;;4919209;29;20051;-73
2022/04/18 03:55:15;;;;;;;26.92;19.65;;;3.50;99.90;;;;;;4919110;29;20095;-73
2022/04/18 03:57:41;;;;;;;26.08;19.52;;;3.50;99.90;;;;;;4934401;29;20054;-73
2022/04/18 04:00:08;;;;;;;25.73;19.63;;;3.40;99.90;;;;;;4934146;29;20095;-73
2022/04/18 04:02:34;;;;;;;27.85;20.60;;;3.40;99.90;;;;;;4934863;29;20036;-73
2022/04/18 04:04:59;;;;;;;26.10;19.60;;;3.40;99.90;;;;;;4918671;29;20091;-73
2022/04/18 04:07:25;;;;;;;25.58;19.40;;;3.30;99.90;;;;;;4934169;29;20051;-73
2022/04/18 04:09:53;;;;;;;24.75;19.33;;;3.40;99.90;;;;;;4934216;29;20491;-73
2022/04/18 04:12:27;;;;;;;25.05;19.42;;;3.30;99.90;;;;;;4934098;29;20044;-73
2022/04/18 04:14:53;;;;;;;23.00;19.42;;;3.30;99.90;;;;;;4934426;29;20094;-73
2022/04/18 04:17:21;;;;;;;25.33;19.50;;;3.20;99.90;;;;;;4934103;29;20047;-73
2022/04/18 04:19:47;;;;;;;25.48;19.00;;;3.20;99.90;;;;;;4934213;29;20484;-73
2022/04/18 04:22:12;;;;;;;28.23;20.60;;;3.20;99.90;;;;;;4934235;29;20056;-73
2022/04/18 04:24:38;;;;;;;26.27;19.63;;;3.10;99.90;;;;;;4918824;29;20506;-73
2022/04/18 04:27:04;;;;;;;22.40;18.55;;;3.10;99.90;;;;;;4935015;29;20040;-73
2022/04/18 04:29:30;;;;;;;24.58;18.65;;;3.10;99.90;;;;;;4933469;29;20048;-73
2022/04/18 04:31:55;;;;;;;23.65;19.80;;;3.10;99.90;;;;;;4918339;29;20043;-73
2022/04/18 04:34:21;;;;;;;27.67;20.88;;;3.30;99.90;;;;;;4935307;29;20048;-73
2022/04/18 04:36:46;;;;;;;23.98;18.48;;;3.30;99.90;;;;;;4933053;29;20043;-73
2022/04/18 04:39:12;;;;;;;24.02;18.60;;;3.40;99.90;;;;;;4934926;29;20399;-73
2022/04/18 04:41:38;;;;;;;25.67;19.42;;;3.60;99.90;;;;;;4933994;29;20502;-73
2022/04/18 04:44:05;;;;;;;26.10;19.17;;;3.70;99.90;;;;;;4918232;29;20035;-73
2022/04/18 04:46:30;;;;;;;25.90;18.98;;;3.70;99.90;;;;;;4934765;29;20162;-73
2022/04/18 04:48:56;;;;;;;27.73;19.42;;;3.70;99.90;;;;;;4918142;29;20218;-73
2022/04/18 04:51:21;;;;;;;26.42;19.60;;;3.80;99.90;;;;;;4933915;29;20055;-73
2022/04/18 04:53:48;;;;;;;22.27;18.92;;;3.80;99.90;;;;;;4918192;29;20069;-73
2022/04/18 04:56:14;;;;;;;22.33;18.55;;;3.80;99.90;;;;;;4933666;29;20063;-73
2022/04/18 04:58:39;;;;;;;23.98;18.45;;;3.80;99.90;;;;;;4917747;29;20040;-73
2022/04/18 05:01:07;;;;;;;23.25;18.48;;;3.80;99.90;;;;;;4918075;29;20039;-73
2022/04/18 05:03:32;;;;;;;23.90;19.52;;;3.70;99.90;;;;;;4933544;29;20598;-73
2022/04/18 05:05:58;;;;;;;22.60;18.67;;;3.80;99.90;;;;;;4933079;29;20122;-73
2022/04/18 05:08:24;;;;;;;21.25;18.77;;;3.80;99.90;;;;;;4933195;29;20494;-73
2022/04/18 05:10:49;;;;;;;22.05;17.92;;;3.80;99.90;;;;;;4934176;29;20039;-73
2022/04/18 05:13:15;;;;;;;23.10;17.27;;;3.70;99.90;;;;;;4917636;29;20490;-73
2022/04/18 05:15:40;;;;;;;23.23;18.48;;;3.70;99.90;;;;;;4933371;29;20087;-73
2022/04/18 05:18:06;;;;;;;24.25;17.83;;;3.70;99.90;;;;;;4933238;29;20047;-73
2022/04/18 05:20:31;;;;;;;21.17;17.55;;;3.80;99.90;;;;;;4917341;29;20040;-73
2022/04/18 05:22:57;;;;;;;22.33;18.38;;;3.80;99.90;;;;;;4933370;29;20044;-73
2022/04/18 05:25:24;;;;;;;20.38;17.77;;;3.80;99.90;;;;;;4934171;29;20067;-73
2022/04/18 05:27:50;;;;;;;22.15;17.70;;;3.90;99.90;;;;;;4917463;29;20094;-73
2022/04/18 05:30:15;;;;;;;20.63;17.00;;;4.00;99.90;;;;;;4933028;29;20083;-73
2022/04/18 05:32:43;;;;;;;22.38;17.17;;;4.00;99.90;;;;;;4917747;29;20047;-73
2022/04/18 05:35:09;;;;;;;23.05;17.08;;;4.10;99.90;;;;;;4932762;29;20506;-73
2022/04/18 05:37:34;;;;;;;23.95;18.13;;;4.10;99.90;;;;;;4917267;29;20036;-73
2022/04/18 05:40:00;;;;;;;20.15;16.83;;;4.30;99.90;;;;;;4932475;29;20649;-73
2022/04/18 05:42:25;;;;;;;22.48;17.80;;;4.30;99.90;;;;;;4933505;29;20051;-73
2022/04/18 05:44:51;;;;;;;23.00;18.40;;;4.40;99.90;;;;;;4932451;29;20036;-73
2022/04/18 05:47:17;;;;;;;22.27;18.70;;;4.50;99.90;;;;;;4932737;29;20122;-73
2022/04/18 05:49:42;;;;;;;22.67;16.80;;;4.60;99.90;;;;;;4936182;29;20407;-74
2022/04/18 05:52:08;;;;;;;22.13;17.65;;;4.70;99.90;;;;;;4936949;29;20102;-73
2022/04/18 05:54:33;;;;;;;22.73;17.35;;;4.70;99.90;;;;;;4920835;29;20043;-73
2022/04/18 05:57:02;;;;;;;23.48;17.33;;;4.80;99.90;;;;;;4921190;29;20098;-73
2022/04/18 05:59:28;;;;;;;23.90;17.20;;;4.90;99.90;;;;;;4920851;29;20044;-73
2022/04/18 06:01:54;;;;;;;20.40;17.00;;;5.10;99.90;;;;;;4920846;29;20123;-73
2022/04/18 06:04:19;;;;;;;21.55;17.95;;;5.20;99.90;;;;;;4936372;29;20051;-73
2022/04/18 06:06:45;;;;;;;25.27;16.92;;;5.30;99.90;;;;;;4921057;29;20122;-73
2022/04/18 06:09:10;;;;;;;20.88;17.13;;;5.50;99.80;;;;;;4936528;29;20043;-73
2022/04/18 06:11:36;;;;;;;24.30;17.60;;;5.50;99.60;;;;;;4920985;29;20063;-73
2022/04/18 06:14:01;;;;;;;23.92;18.98;;;5.60;99.50;;;;;;4936500;29;20066;-73
2022/04/18 06:16:27;;;;;;;19.77;16.63;;;5.70;99.60;;;;;;4920665;29;20517;-74
2022/04/18 06:18:52;;;;;;;21.90;17.77;;;5.70;99.70;;;;;;4920501;29;20043;-73
2022/04/18 06:21:18;;;;;;;25.38;18.35;;;5.80;99.50;;;;;;4920808;29;20076;-73
2022/04/18 06:23:43;;;;;;;20.77;17.02;;;5.80;99.10;;;;;;4936156;29;20087;-73
2022/04/18 06:26:09;;;;;;;20.55;17.10;;;6.10;99.00;;;;;;4937635;29;20534;-73
2022/04/18 06:28:34;;;;;;;21.70;16.92;;;6.20;98.50;;;;;;4920355;29;20035;-73
2022/04/18 06:31:00;;;;;;;21.60;17.48;;;6.30;98.20;;;;;;4920498;29;20082;-73
2022/04/18 06:33:28;;;;;;;21.08;17.38;;;6.30;98.00;;;;;;4920567;29;20103;-73
2022/04/18 06:35:53;;;;;;;23.90;17.52;;;6.40;97.90;;;;;;4936403;29;20450;-73
2022/04/18 06:38:19;;;;;;;20.45;17.10;;;6.60;97.60;;;;;;4920216;29;20087;-73
2022/04/18 06:40:44;;;;;;;21.23;16.27;;;6.70;97.50;;;;;;4919977;29;20414;-73
2022/04/18 06:43:10;;;;;;;20.20;16.55;;;6.90;97.20;;;;;;4937731;29;20577;-73
2022/04/18 06:45:35;;;;;;;21.15;17.15;;;7.10;96.50;;;;;;4936040;29;20071;-73
2022/04/18 06:48:01;;;;;;;19.63;16.63;;;7.20;96.50;;;;;;4920200;29;20055;-73
2022/04/18 06:50:26;;;;;;;18.23;16.20;;;7.30;96.70;;;;;;4919877;29;20524;-74
2022/04/18 06:52:55;;;;;;;20.02;16.23;;;7.30;96.50;;;;;;4917488;29;20063;-74
2022/04/18 06:55:23;;;;;;;20.40;16.50;;;7.40;96.10;;;;;;4919279;29;20099;-75
2022/04/18 06:57:51;;;;;;;20.05;16.42;;;7.50;95.70;;;;;;4935578;29;20044;-77
2022/04/18 07:00:16;;;;;;;23.33;16.73;;;7.70;95.60;;;;;;4917053;29;20487;-74
2022/04/18 07:02:46;;;;;;;21.60;15.55;;;7.70;95.60;;;;;;4933274;29;20028;-74
2022/04/18 07:05:12;;;;;;;19.02;15.57;;;7.80;95.50;;;;;;4935548;29;20091;-74
2022/04/18 07:07:38;;;;;;;18.63;14.98;;;7.90;95.50;;;;;;4935607;29;20047;-74
2022/04/18 07:10:04;;;;;;;19.98;15.73;;;8.10;95.10;;;;;;4918005;29;20611;-74
2022/04/18 07:12:33;;;;;;;21.55;15.95;;;8.20;94.50;;;;;;4934621;29;20042;-74
2022/04/18 07:14:59;;;;;;;19.45;15.35;;;8.30;94.40;;;;;;4920079;29;20047;-74
2022/04/18 07:17:25;;;;;;;19.13;16.30;;;8.50;94.30;;;;;;4908011;29;20060;-73
2022/04/18 07:19:51;;;;;;;19.13;14.75;;;8.60;93.80;;;;;;4931496;29;20071;-73
2022/04/18 07:22:17;;;;;;;18.25;14.82;;;8.70;93.00;;;;;;4935551;29;20079;-73
2022/04/18 07:24:45;;;;;;;19.33;15.25;;;8.90;93.00;;;;;;4935135;29;20040;-73
2022/04/18 07:27:10;;;;;;;18.02;13.98;;;9.00;92.90;;;;;;4935238;29;20234;-73
2022/04/18 07:29:36;;;;;;;17.85;14.88;;;9.10;91.80;;;;;;4934491;29;20043;-73
2022/04/18 07:32:01;;;;;;;22.38;15.35;;;9.30;91.60;;;;;;4919593;29;20134;-73
2022/04/18 07:34:29;;;;;;;21.23;14.63;;;9.30;91.50;;;;;;4934603;29;20114;-74
2022/04/18 07:36:55;;;;;;;22.92;15.65;;;9.40;90.90;;;;;;4919186;29;20050;-75
2022/04/18 07:39:21;;;;;;;21.60;15.52;;;9.60;89.70;;;;;;4918397;29;20056;-75
2022/04/18 07:41:49;;;;;;;18.80;14.82;;;9.70;89.60;;;;;;4935153;29;20195;-75
2022/04/18 07:44:15;;;;;;;16.20;14.07;;;9.80;90.00;;;;;;4935842;29;20035;-75
2022/04/18 07:46:42;;;;;;;22.17;14.32;;;9.90;87.60;;;;;;4919255;29;20495;-75
2022/04/18 07:49:08;;;;;;;17.92;14.23;;;10.00;86.10;;;;;;4918611;29;20548;-75
2022/04/18 07:51:39;;;;;;;19.98;13.85;;;10.10;87.50;;;;;;4919092;29;20059;-75
2022/04/18 07:54:17;;;;;;;19.98;13.75;;;10.20;86.00;;;;;;4935015;29;20043;-75
2022/04/18 07:56:44;;;;;;;18.30;13.55;;;10.40;78.00;;;;;;4934635;29;20087;-76
2022/04/18 07:59:12;;;;;;;17.15;14.48;;;10.60;83.60;;;;;;4934444;29;20583;-76
2022/04/18 08:01:38;;;;;;;18.65;14.07;;;10.60;84.00;;;;;;4934858;29;20050;-76
2022/04/18 08:04:04;;;;;;;16.35;13.43;;;10.80;84.20;;;;;;4918915;29;20040;-76
2022/04/18 08:06:31;;;;;;;17.33;12.52;;;10.90;83.40;;;;;;4919049;29;20446;-76
2022/04/18 08:08:59;;;;;;;18.88;13.63;;;11.00;81.00;;;;;;4918514;29;20055;-76
2022/04/18 08:11:26;;;;;;;19.85;14.10;;;11.20;79.70;;;;;;4918158;29;20040;-76
2022/04/18 08:13:53;;;;;;;15.57;12.77;;;11.40;80.20;;;;;;4917658;29;20079;-75
2022/04/18 08:16:20;;;;;;;17.00;13.30;;;11.50;78.80;;;;;;4918896;29;20047;-75
2022/04/18 08:18:48;;;;;;;15.48;12.48;;;11.60;78.00;;;;;;4918375;29;20063;-75
2022/04/18 08:21:17;;;;;;;14.38;11.30;;;11.70;76.50;;;;;;4917896;29;20047;-75
2022/04/18 08:23:47;;;;;;;14.93;11.23;;;11.90;74.10;;;;;;4918492;29;20035;-75
2022/04/18 08:26:21;;;;;;;13.70;11.13;;;12.00;73.90;;;;;;4918694;29;20095;-75
2022/04/18 08:28:47;;;;;;;13.65;11.77;;;12.30;74.70;;;;;;4918561;29;20138;-75
2022/04/18 08:31:15;;;;;;;14.35;12.10;;;13.10;78.50;;;;;;4917878;29;20130;-75
2022/04/18 08:33:40;;;;;;;17.58;12.07;;;14.20;73.20;;;;;;4934150;29;20051;-75
2022/04/18 08:36:09;;;;;;;13.93;11.65;;;15.30;75.20;;;;;;4934104;29;20398;-74
2022/04/18 08:38:37;;;;;;;13.05;9.95;;;16.40;70.70;;;;;;4917398;29;20147;-75
2022/04/18 08:41:09;;;;;;;10.68;9.57;;;17.40;64.40;;;;;;4918251;29;20048;-75
2022/04/18 08:43:41;;;;;;;11.52;9.90;;;18.20;61.00;;;;;;4934330;29;20503;-75
2022/04/18 08:46:08;;;;;;;11.57;9.90;;;18.90;57.30;;;;;;4917779;29;20044;-75
2022/04/18 08:54:12;;;;;;;11.50;9.73;;;20.00;50.40;;;;;;4933758;29;20565;-75
2022/04/18 08:56:38;;;;;;;10.13;9.13;;;20.40;51.90;;;;;;4933333;29;20126;-75
2022/04/18 08:59:04;;;;;;;10.35;9.25;;;20.70;50.70;;;;;;4933230;29;20102;-75
2022/04/18 09:01:30;;;;;;;10.98;9.05;;;21.00;50.20;;;;;;4917151;29;20491;-76
2022/04/18 09:03:58;;;;;;;12.88;8.68;;;21.20;49.20;;;;;;4917829;29;20051;-75
2022/04/18 09:06:24;;;;;;;10.27;9.27;;;21.40;48.20;;;;;;4917882;29;20191;-75
2022/04/18 09:08:56;;;;;;;10.13;9.02;;;21.50;47.50;;;;;;4916789;29;20032;-74
2022/04/18 09:11:27;;;;;;;9.77;8.65;;;21.70;47.90;;;;;;4917630;29;20106;-74
2022/04/18 09:14:09;;;;;;;9.90;8.88;;;22.00;47.60;;;;;;4917208;29;20118;-74
2022/04/18 09:16:36;;;;;;;9.15;8.20;;;22.30;47.00;;;;;;4918065;29;20101;-74
2022/04/18 09:19:09;;;;;;;9.38;8.40;;;22.40;45.40;;;;;;4931403;29;20048;-74
2022/04/18 09:21:55;;;;;;;10.15;8.60;;;22.50;45.20;;;;;;4917536;29;20079;-74
2022/04/18 09:24:34;;;;;;;9.20;8.30;;;22.60;45.50;;;;;;4917692;29;20086;-73
2022/04/18 09:27:14;;;;;;;9.90;8.75;;;22.60;43.50;;;;;;4917412;29;20047;-73
2022/04/18 09:29:43;;;;;;;10.73;8.70;;;22.80;45.20;;;;;;4917738;29;20043;-74
2022/04/18 09:32:13;;;;;;;9.40;8.43;;;23.10;44.90;;;;;;4933085;29;20136;-74
2022/04/18 09:34:42;;;;;;;9.27;8.27;;;23.30;43.60;;;;;;4916081;29;20044;-74
2022/04/18 09:37:12;;;;;;;8.88;7.60;;;23.40;42.60;;;;;;4917653;29;20043;-76
2022/04/18 09:39:40;;;;;;;8.80;7.90;;;23.50;42.80;;;;;;4917697;29;20031;-75
2022/04/18 09:42:10;;;;;;;9.30;7.97;;;23.60;43.10;;;;;;4917200;29;20036;-75
2022/04/18 09:44:39;;;;;;;9.00;8.15;;;23.80;42.60;;;;;;4930287;29;20048;-75
2022/04/18 09:47:06;;;;;;;8.32;7.40;;;23.70;42.40;;;;;;4917473;29;20048;-75
2022/04/18 09:49:44;;;;;;;9.82;7.78;;;23.50;42.00;;;;;;4909694;29;20198;-75
2022/04/18 09:52:11;;;;;;;8.68;7.88;;;23.60;42.20;;;;;;4949180;29;20055;-75
2022/04/18 09:54:50;;;;;;;9.18;8.27;;;23.60;41.50;;;;;;4936346;29;20409;-75
2022/04/18 09:57:21;;;;;;;8.77;7.65;;;23.60;41.20;;;;;;4932484;29;20398;-74
2022/04/18 09:59:48;;;;;;;8.25;7.43;;;23.50;41.30;;;;;;4916830;29;20051;-75
2022/04/18 10:02:13;;;;;;;7.95;7.10;;;23.60;41.90;;;;;;4916941;29;20091;-75
2022/04/18 10:04:40;;;;;;;9.65;7.35;;;23.80;43.30;;;;;;4917361;29;20131;-75
2022/04/18 10:07:07;;;;;;;8.52;7.70;;;23.80;41.70;;;;;;4917007;29;20055;-74
2022/04/18 10:09:33;;;;;;;7.55;6.50;;;23.80;40.40;;;;;;4917099;29;20415;-76
2022/04/18 10:11:59;;;;;;;7.90;6.88;;;23.70;40.20;;;;;;4916779;29;20039;-74
2022/04/18 10:14:25;;;;;;;7.32;6.22;;;23.80;41.10;;;;;;4917169;29;20047;-74
2022/04/18 10:16:52;;;;;;;7.88;7.15;;;24.00;39.90;;;;;;4916886;29;20059;-75
2022/04/18 10:19:36;;;;;;;8.52;6.63;;;24.20;39.80;;;;;;4932892;29;20090;-75
2022/04/18 10:22:41;;;;;;;6.82;6.13;;;24.30;40.00;;;;;;4915932;29;20040;-78
2022/04/18 10:25:45;;;;;;;7.70;6.25;;;24.50;39.50;;;;;;4917136;29;20044;-76
2022/04/18 10:28:33;;;;;;;6.70;5.97;;;24.70;39.70;;;;;;4917140;29;20083;-77
2022/04/18 10:31:17;;;;;;;6.70;6.07;;;24.90;39.30;;;;;;4916008;29;20043;-78
2022/04/18 10:33:49;;;;;;;5.88;5.28;;;24.80;36.90;;;;;;4916609;29;20103;-77
2022/04/18 10:36:25;;;;;;;7.43;5.80;;;24.70;38.50;;;;;;4936199;29;20118;-77
2022/04/18 10:38:51;;;;;;;7.13;5.75;;;24.80;37.70;;;;;;4920301;29;20047;-78
2022/04/18 10:41:52;;;;;;;7.05;6.35;;;24.90;37.30;;;;;;4920297;29;20065;-77
2022/04/18 10:44:33;;;;;;;6.53;4.70;;;25.00;37.50;;;;;;4911157;29;20052;-77
2022/04/18 10:47:08;;;;;;;5.80;5.10;;;25.20;35.90;;;;;;4919549;29;20087;-78
2022/04/18 10:50:18;;;;;;;6.00;5.40;;;25.30;36.60;;;;;;4935673;29;20110;-78
2022/04/18 10:53:12;;;;;;;5.30;4.57;;;25.40;36.10;;;;;;4935851;29;20126;-78
2022/04/18 10:56:21;;;;;;;5.30;4.75;;;25.50;34.10;;;;;;4936396;29;20082;-79
2022/04/18 10:59:06;;;;;;;5.10;4.60;;;25.40;36.20;;;;;;4935783;29;20179;-78
2022/04/18 11:01:42;;;;;;;5.60;5.00;;;25.20;37.00;;;;;;4919033;29;20070;-78
2022/04/18 11:04:15;;;;;;;5.60;4.90;;;25.60;31.60;;;;;;4919784;29;20040;-78
2022/04/18 11:06:48;;;;;;;5.47;4.97;;;25.10;32.60;;;;;;4920880;29;20561;-78
2022/04/18 11:09:19;;;;;;;4.30;3.90;;;24.70;35.00;;;;;;4918809;29;20035;-77
2022/04/18 11:12:15;;;;;;;4.68;3.50;;;24.80;36.60;;;;;;4920941;29;20060;-78
2022/04/18 11:14:54;;;;;;;4.70;3.60;;;25.00;35.00;;;;;;4905636;29;20048;-78
2022/04/18 11:17:45;;;;;;;4.00;3.60;;;25.20;35.10;;;;;;4905580;29;20051;-79
2022/04/18 11:20:54;;;;;;;3.55;3.15;;;25.60;33.90;;;;;;4920724;29;20043;-79
2022/04/18 11:23:32;;;;;;;3.70;2.85;;;25.90;34.80;;;;;;4920029;29;20399;-77
2022/04/18 11:26:28;;;;;;;4.03;3.42;;;26.10;34.30;;;;;;4935970;29;20506;-77
2022/04/18 11:29:02;;;;;;;3.58;3.13;;;26.30;34.30;;;;;;4951289;28;20038;-78
2022/04/18 11:32:09;;;;;;;4.57;3.10;;;26.40;34.10;;;;;;4933733;29;20048;-80
2022/04/18 11:34:45;;;;;;;4.80;4.13;;;26.70;34.20;;;;;;4932955;29;20052;-77
2022/04/18 11:37:13;;;;;;;6.05;3.50;;;26.80;35.00;;;;;;4935440;29;20486;-77
2022/04/18 11:39:49;;;;;;;4.68;3.92;;;27.00;36.00;;;;;;4918969;29;20043;-78
2022/04/18 11:42:32;;;;;;;4.63;3.85;;;27.20;36.90;;;;;;4919311;29;20044;-76
2022/04/18 11:44:59;;;;;;;;;;;27.50;35.00;;;;;;4919652;29;20036;-77
2022/04/18 11:47:44;;;;;;;6.03;4.15;;;27.50;35.10;;;;;;4918435;29;19927;-76
2022/04/18 11:50:10;;;;;;;4.43;3.53;;;27.70;35.00;;;;;;4915968;29;20515;-76
2022/04/18 11:52:42;;;;;;;5.15;3.70;;;27.70;34.70;;;;;;4916469;29;20055;-76
2022/04/18 11:55:18;;;;;;;3.90;3.27;;;27.80;33.80;;;;;;4922616;29;20047;-77
2022/04/18 11:57:53;;;;;;;3.53;3.13;;;27.80;32.90;;;;;;4918391;29;20499;-76
2022/04/18 12:09:47;;;;;;;;;;;;;;;;;;;;;
2022/04/18 12:12:58;;;;;;;4.45;3.40;;;28.00;31.20;;;;;;5162630;27;20407;-76
2022/04/18 12:15:47;;;;;;;4.15;3.65;;;28.10;33.40;;;;;;5112074;27;20517;-78
2022/04/18 12:18:28;;;;;;;3.83;3.47;;;28.30;31.60;;;;;;5117889;27;20035;-78
2022/04/18 12:21:03;;;;;;;6.53;3.58;;;28.40;31.20;;;;;;5113982;28;20043;-78
2022/04/18 12:24:24;;;;;;;5.05;3.70;;;28.40;32.10;;;;;;5109348;27;20120;-78
2022/04/18 12:26:56;;;;;;;4.00;3.60;;;28.50;31.00;;;;;;5104116;28;20044;-78
2022/04/18 12:29:30;;;;;;;3.85;3.53;;;28.30;31.50;;;;;;5110889;27;20040;-78
2022/04/18 12:32:30;;;;;;;5.35;3.85;;;28.30;32.70;;;;;;5101106;28;20482;-78
2022/04/18 12:35:58;;;;;;;;;;;;;;;;;;;;;
2022/04/18 12:38:45;;;;;;;3.38;3.05;;;28.60;32.10;;;;;;5107185;28;20047;-78
2022/04/18 12:41:39;;;;;;;3.60;3.05;;;28.70;31.70;;;;;;5123593;27;20051;-78
2022/04/18 12:44:17;;;;;;;3.33;3.03;;;28.80;32.90;;;;;;5123083;27;20389;-78
2022/04/18 12:46:43;;;;;;;5.20;3.53;;;28.90;29.80;;;;;;5105291;28;20040;-78
2022/04/18 12:49:21;;;;;;;5.47;3.80;;;28.90;32.00;;;;;;5119293;22;20054;-78
2022/04/18 12:52:09;;;;;;;4.20;3.80;;;29.10;32.20;;;;;;5090260;28;20056;-78
2022/04/18 12:54:59;;;;;;;4.80;4.20;;;29.20;29.80;;;;;;5089612;28;20449;-78
2022/04/18 12:57:36;;;;;;;8.15;3.95;;;28.90;29.90;;;;;;5090718;28;20039;-78
2022/04/18 13:00:17;;;;;;;6.53;4.30;;;28.80;31.70;;;;;;5099746;28;20043;-78
2022/04/18 13:03:10;;;;;;;4.40;4.00;;;29.00;31.10;;;;;;5105216;28;20501;-78
2022/04/18 13:05:44;;;;;;;4.68;4.13;;;29.30;31.70;;;;;;5116303;22;20084;-74
2022/04/18 13:08:11;;;;;;;4.53;3.95;;;29.50;31.60;;;;;;5066597;28;20043;-74
2022/04/18 13:10:37;;;;;;;4.55;4.07;;;29.90;31.00;;;;;;5066094;28;20043;-74
2022/04/18 13:13:18;;;;;;;4.45;3.67;;;30.00;30.40;;;;;;5066809;28;20037;-74
2022/04/18 13:15:48;;;;;;;4.85;4.20;;;30.00;31.40;;;;;;5066376;28;20037;-74
2022/04/18 13:18:22;;;;;;;4.82;3.88;;;30.30;31.40;;;;;;5066473;28;20040;-74
2022/04/18 13:20:48;;;;;;;4.80;4.40;;;30.30;30.50;;;;;;5066128;28;20120;-75
2022/04/18 13:23:15;;;;;;;4.60;4.20;;;29.80;30.00;;;;;;5057115;28;20401;-74